sensor_id;sensor_type;location;lat;lon;timestamp;P1;durP1;ratioP1;P2;durP2;ratioP2
15557;SDS011;7880;50.110;9.372;2023-06-19T00:03:41;5.43076923076923;;;4.93076923076923;;
15557;SDS011;7880;50.110;9.372;2023-06-19T00:08:45;6.200000000000002;;;5.43076923076923;;
15557;SDS011;7880;50.110;9.372;2023-06-19T00:13:52;7.43076923076923;;;5.730769230769231;;
15557;SDS011;7880;50.110;9.372;2023-06-19T00:18:56;6.200000000000002;;;5.6;;
15557;SDS011;7880;50.110;9.372;2023-06-19T00:24:02;6.446153846153845;;;5.846153846153848;;
15557;SDS011;7880;50.110;9.372;2023-06-19T00:29:08;6.230769230769231;;;5.3307692307692305;;
15557;SDS011;7880;50.110;9.372;2023-06-19T00:34:11;6.161538461538462;;;5.43076923076923;;
15557;SDS011;7880;50.110;9.372;2023-06-19T00:39:16;7.938461538461538;;;5.93076923076923;;
15557;SDS011;7880;50.110;9.372;2023-06-19T00:44:21;6.630769230769232;;;5.93076923076923;;
15557;SDS011;7880;50.110;9.372;2023-06-19T00:49:26;5.9;;;5.299999999999999;;
15557;SDS011;7880;50.110;9.372;2023-06-19T00:54:30;6.200000000000002;;;5.6;;
15557;SDS011;7880;50.110;9.372;2023-06-19T00:59:34;7.13846153846154;;;5.969230769230771;;
15557;SDS011;7880;50.110;9.372;2023-06-19T01:04:39;6.130769230769232;;;5.53076923076923;;
15557;SDS011;7880;50.110;9.372;2023-06-19T01:09:46;6.43076923076923;;;5.8307692307692305;;
15557;SDS011;7880;50.110;9.372;2023-06-19T01:14:52;7.723076923076923;;;6.169230769230769;;
15557;SDS011;7880;50.110;9.372;2023-06-19T01:19:53;8.561538461538461;;;6.1;;
15557;SDS011;7880;50.110;9.372;2023-06-19T01:24:54;7.5;;;6.0;;
15557;SDS011;7880;50.110;9.372;2023-06-19T01:29:59;6.030769230769229;;;5.43076923076923;;
15557;SDS011;7880;50.110;9.372;2023-06-19T01:35:04;5.9;;;5.299999999999999;;
15557;SDS011;7880;50.110;9.372;2023-06-19T01:40:08;6.43076923076923;;;5.799999999999998;;
15557;SDS011;7880;50.110;9.372;2023-06-19T01:45:11;6.4;;;5.461538461538459;;
15557;SDS011;7880;50.110;9.372;2023-06-19T01:50:17;6.730769230769231;;;6.030769230769229;;
15557;SDS011;7880;50.110;9.372;2023-06-19T01:55:24;7.230769230769231;;;5.6;;
15557;SDS011;7880;50.110;9.372;2023-06-19T02:00:27;6.961538461538459;;;5.53076923076923;;
15557;SDS011;7880;50.110;9.372;2023-06-19T02:05:39;7.599999999999999;;;5.6;;
15557;SDS011;7880;50.110;9.372;2023-06-19T02:10:43;6.169230769230769;;;5.4;;
15557;SDS011;7880;50.110;9.372;2023-06-19T02:15:41;6.299999999999998;;;5.700000000000002;;
15557;SDS011;7880;50.110;9.372;2023-06-19T02:20:45;6.700000000000002;;;6.0;;
15557;SDS011;7880;50.110;9.372;2023-06-19T02:25:48;5.799999999999998;;;5.299999999999999;;
15557;SDS011;7880;50.110;9.372;2023-06-19T02:30:53;6.669230769230769;;;5.769230769230769;;
15557;SDS011;7880;50.110;9.372;2023-06-19T02:36:06;6.230769230769231;;;5.630769230769232;;
15557;SDS011;7880;50.110;9.372;2023-06-19T02:41:01;5.661538461538462;;;5.130769230769232;;
15557;SDS011;7880;50.110;9.372;2023-06-19T02:46:06;7.200000000000002;;;6.030769230769229;;
15557;SDS011;7880;50.110;9.372;2023-06-19T02:51:09;7.56923076923077;;;6.06923076923077;;
15557;SDS011;7880;50.110;9.372;2023-06-19T02:56:17;7.838461538461539;;;6.299999999999998;;
15557;SDS011;7880;50.110;9.372;2023-06-19T03:01:20;6.86153846153846;;;5.661538461538462;;
15557;SDS011;7880;50.110;9.372;2023-06-19T03:06:26;6.799999999999998;;;6.1;;
15557;SDS011;7880;50.110;9.372;2023-06-19T03:11:31;6.5307692307692315;;;5.799999999999998;;
15557;SDS011;7880;50.110;9.372;2023-06-19T03:16:35;7.200000000000002;;;6.200000000000002;;
15557;SDS011;7880;50.110;9.372;2023-06-19T03:20:56;7.0;;;6.299999999999998;;
15557;SDS011;7880;50.110;9.372;2023-06-19T03:25:59;6.799999999999998;;;6.1;;
15557;SDS011;7880;50.110;9.372;2023-06-19T03:31:09;8.36923076923077;;;6.730769230769231;;
15557;SDS011;7880;50.110;9.372;2023-06-19T03:36:08;7.453846153846152;;;5.661538461538462;;
15557;SDS011;7880;50.110;9.372;2023-06-19T03:41:18;9.538461538461538;;;6.700000000000002;;
15557;SDS011;7880;50.110;9.372;2023-06-19T03:46:16;8.969230769230771;;;6.330769230769231;;
15557;SDS011;7880;50.110;9.372;2023-06-19T03:51:22;9.86923076923077;;;6.130769230769232;;
15557;SDS011;7880;50.110;9.372;2023-06-19T03:56:24;8.33846153846154;;;6.369230769230768;;
15557;SDS011;7880;50.110;9.372;2023-06-19T04:01:29;9.86923076923077;;;6.799999999999998;;
15557;SDS011;7880;50.110;9.372;2023-06-19T04:06:33;6.469230769230771;;;5.6;;
15557;SDS011;7880;50.110;9.372;2023-06-19T04:11:38;9.907692307692306;;;6.669230769230769;;
15557;SDS011;7880;50.110;9.372;2023-06-19T04:16:47;8.76923076923077;;;6.599999999999999;;
15557;SDS011;7880;50.110;9.372;2023-06-19T04:21:46;9.5;;;6.1;;
15557;SDS011;7880;50.110;9.372;2023-06-19T04:26:51;9.669230769230769;;;6.769230769230769;;
15557;SDS011;7880;50.110;9.372;2023-06-19T04:31:56;7.869230769230768;;;6.530769230769229;;
15557;SDS011;7880;50.110;9.372;2023-06-19T04:37:02;6.599999999999999;;;5.9;;
15557;SDS011;7880;50.110;9.372;2023-06-19T04:42:04;6.799999999999998;;;6.1;;
15557;SDS011;7880;50.110;9.372;2023-06-19T04:47:09;7.16923076923077;;;6.253846153846153;;
15557;SDS011;7880;50.110;9.372;2023-06-19T04:52:12;7.56923076923077;;;6.599999999999999;;
15557;SDS011;7880;50.110;9.372;2023-06-19T04:57:16;9.538461538461538;;;6.830769230769231;;
15557;SDS011;7880;50.110;9.372;2023-06-19T05:02:19;6.06923076923077;;;5.5;;
15557;SDS011;7880;50.110;9.372;2023-06-19T05:07:24;7.207692307692307;;;5.06923076923077;;
15557;SDS011;7880;50.110;9.372;2023-06-19T05:12:27;6.646153846153846;;;4.430769230769231;;
15557;SDS011;7880;50.110;9.372;2023-06-19T05:17:31;5.46923076923077;;;3.7999999999999994;;
15557;SDS011;7880;50.110;9.372;2023-06-19T05:22:35;4.338461538461538;;;3.469230769230769;;
15557;SDS011;7880;50.110;9.372;2023-06-19T05:27:40;3.4384615384615387;;;3.138461538461539;;
15557;SDS011;7880;50.110;9.372;2023-06-19T05:32:44;3.2;;;2.899999999999999;;
15557;SDS011;7880;50.110;9.372;2023-06-19T05:37:48;7.376923076923076;;;3.2999999999999994;;
15557;SDS011;7880;50.110;9.372;2023-06-19T05:42:56;6.169230769230769;;;3.100000000000001;;
15557;SDS011;7880;50.110;9.372;2023-06-19T05:47:59;4.16923076923077;;;3.5;;
15557;SDS011;7880;50.110;9.372;2023-06-19T05:53:04;5.238461538461538;;;3.399999999999999;;
15557;SDS011;7880;50.110;9.372;2023-06-19T05:58:08;3.7999999999999994;;;3.399999999999999;;
15557;SDS011;7880;50.110;9.372;2023-06-19T06:03:13;4.469230769230769;;;3.100000000000001;;
15557;SDS011;7880;50.110;9.372;2023-06-19T06:08:21;6.63846153846154;;;3.6692307692307695;;
15557;SDS011;7880;50.110;9.372;2023-06-19T06:13:25;5.238461538461538;;;3.2692307692307705;;
15557;SDS011;7880;50.110;9.372;2023-06-19T06:18:28;4.523076923076922;;;3.7000000000000006;;
15557;SDS011;7880;50.110;9.372;2023-06-19T06:23:33;4.0;;;3.600000000000001;;
15557;SDS011;7880;50.110;9.372;2023-06-19T06:28:49;4.1923076923076925;;;3.7307692307692295;;
15557;SDS011;7880;50.110;9.372;2023-06-19T06:33:41;5.56923076923077;;;3.899999999999999;;
15557;SDS011;7880;50.110;9.372;2023-06-19T06:38:47;4.0;;;3.600000000000001;;
15557;SDS011;7880;50.110;9.372;2023-06-19T06:43:55;4.200000000000001;;;3.7307692307692295;;
15557;SDS011;7880;50.110;9.372;2023-06-19T06:49:00;3.969230769230769;;;3.399999999999999;;
15557;SDS011;7880;50.110;9.372;2023-06-19T06:54:03;4.06923076923077;;;3.5;;
15557;SDS011;7880;50.110;9.372;2023-06-19T06:59:08;5.03076923076923;;;4.530769230769231;;
15557;SDS011;7880;50.110;9.372;2023-06-19T07:04:14;5.3076923076923075;;;4.6000000000000005;;
15557;SDS011;7880;50.110;9.372;2023-06-19T07:09:17;5.06923076923077;;;4.469230769230769;;
15557;SDS011;7880;50.110;9.372;2023-06-19T07:14:22;6.261538461538462;;;4.700000000000001;;
15557;SDS011;7880;50.110;9.372;2023-06-19T07:19:25;4.661538461538462;;;4.23076923076923;;
15557;SDS011;7880;50.110;9.372;2023-06-19T07:24:29;5.4;;;4.430769230769231;;
15557;SDS011;7880;50.110;9.372;2023-06-19T07:29:36;4.799999999999999;;;4.3999999999999995;;
15557;SDS011;7880;50.110;9.372;2023-06-19T07:34:43;4.33076923076923;;;3.93076923076923;;
15557;SDS011;7880;50.110;9.372;2023-06-19T07:39:45;9.276923076923076;;;4.6000000000000005;;
15557;SDS011;7880;50.110;9.372;2023-06-19T07:44:48;7.900000000000001;;;4.6692307692307695;;
15557;SDS011;7880;50.110;9.372;2023-06-19T07:49:53;4.96923076923077;;;4.469230769230769;;
15557;SDS011;7880;50.110;9.372;2023-06-19T07:54:57;5.023076923076924;;;4.1000000000000005;;
15557;SDS011;7880;50.110;9.372;2023-06-19T08:00:07;5.838461538461538;;;3.8307692307692305;;
15557;SDS011;7880;50.110;9.372;2023-06-19T08:05:08;5.238461538461538;;;3.7000000000000006;;
15557;SDS011;7880;50.110;9.372;2023-06-19T08:10:12;4.130769230769232;;;3.7307692307692295;;
15557;SDS011;7880;50.110;9.372;2023-06-19T08:15:15;4.869230769230769;;;3.600000000000001;;
15557;SDS011;7880;50.110;9.372;2023-06-19T08:20:20;6.246153846153847;;;4.3076923076923075;;
15557;SDS011;7880;50.110;9.372;2023-06-19T08:25:10;4.3999999999999995;;;4.0;;
15557;SDS011;7880;50.110;9.372;2023-06-19T08:30:14;4.569230769230769;;;4.1000000000000005;;
15557;SDS011;7880;50.110;9.372;2023-06-19T08:35:23;4.769230769230769;;;3.5;;
15557;SDS011;7880;50.110;9.372;2023-06-19T08:40:25;4.784615384615386;;;4.1000000000000005;;
15557;SDS011;7880;50.110;9.372;2023-06-19T08:45:29;3.7000000000000006;;;3.2692307692307705;;
15557;SDS011;7880;50.110;9.372;2023-06-19T08:50:43;4.0307692307692315;;;3.630769230769232;;
15557;SDS011;7880;50.110;9.372;2023-06-19T08:55:37;6.038461538461541;;;3.7999999999999994;;
15557;SDS011;7880;50.110;9.372;2023-06-19T09:00:46;4.769230769230769;;;4.06923076923077;;
15557;SDS011;7880;50.110;9.372;2023-06-19T09:05:50;4.299999999999999;;;3.8307692307692305;;
15557;SDS011;7880;50.110;9.372;2023-06-19T09:10:55;4.0307692307692315;;;3.7000000000000006;;
15557;SDS011;7880;50.110;9.372;2023-06-19T09:15:58;6.63846153846154;;;4.299999999999999;;
15557;SDS011;7880;50.110;9.372;2023-06-19T09:21:00;5.338461538461538;;;3.7999999999999994;;
15557;SDS011;7880;50.110;9.372;2023-06-19T09:26:05;7.676923076923078;;;3.469230769230769;;
15557;SDS011;7880;50.110;9.372;2023-06-19T09:31:09;4.33076923076923;;;3.93076923076923;;
15557;SDS011;7880;50.110;9.372;2023-06-19T09:36:15;7.807692307692306;;;4.869230769230769;;
15557;SDS011;7880;50.110;9.372;2023-06-19T09:41:16;5.1000000000000005;;;4.299999999999999;;
15557;SDS011;7880;50.110;9.372;2023-06-19T09:46:21;6.907692307692309;;;4.869230769230769;;
15557;SDS011;7880;50.110;9.372;2023-06-19T09:51:30;5.369230769230768;;;4.6692307692307695;;
15557;SDS011;7880;50.110;9.372;2023-06-19T09:56:31;8.576923076923077;;;4.6692307692307695;;
15557;SDS011;7880;50.110;9.372;2023-06-19T10:01:35;5.076923076923077;;;4.461538461538462;;
15557;SDS011;7880;50.110;9.372;2023-06-19T10:06:43;5.4;;;4.8999999999999995;;
15557;SDS011;7880;50.110;9.372;2023-06-19T10:11:47;6.599999999999999;;;4.830769230769231;;
15557;SDS011;7880;50.110;9.372;2023-06-19T10:16:51;4.461538461538462;;;4.130769230769232;;
15557;SDS011;7880;50.110;9.372;2023-06-19T10:21:56;4.8999999999999995;;;4.5;;
15557;SDS011;7880;50.110;9.372;2023-06-19T10:27:27;4.661538461538462;;;4.33076923076923;;
15557;SDS011;7880;50.110;9.372;2023-06-19T10:32:33;5.799999999999998;;;4.799999999999999;;
15557;SDS011;7880;50.110;9.372;2023-06-19T10:37:38;5.1000000000000005;;;4.6000000000000005;;
15557;SDS011;7880;50.110;9.372;2023-06-19T10:42:43;6.538461538461541;;;4.06923076923077;;
15557;SDS011;7880;50.110;9.372;2023-06-19T10:47:47;5.5;;;4.1000000000000005;;
15557;SDS011;7880;50.110;9.372;2023-06-19T10:52:52;4.938461538461538;;;4.038461538461538;;
15557;SDS011;7880;50.110;9.372;2023-06-19T10:57:59;4.200000000000001;;;3.7999999999999994;;
15557;SDS011;7880;50.110;9.372;2023-06-19T11:03:01;7.538461538461541;;;4.1000000000000005;;
15557;SDS011;7880;50.110;9.372;2023-06-19T11:08:06;5.03076923076923;;;4.530769230769231;;
15557;SDS011;7880;50.110;9.372;2023-06-19T11:13:13;4.33076923076923;;;3.93076923076923;;
15557;SDS011;7880;50.110;9.372;2023-06-19T11:18:15;6.3076923076923075;;;4.430769230769231;;
15557;SDS011;7880;50.110;9.372;2023-06-19T11:23:28;4.700000000000001;;;4.299999999999999;;
15557;SDS011;7880;50.110;9.372;2023-06-19T11:28:26;4.769230769230768;;;4.369230769230769;;
15557;SDS011;7880;50.110;9.372;2023-06-19T11:33:27;5.0;;;4.5;;
15557;SDS011;7880;50.110;9.372;2023-06-19T11:38:30;4.938461538461538;;;4.16923076923077;;
15557;SDS011;7880;50.110;9.372;2023-06-19T11:43:40;4.799999999999999;;;4.3999999999999995;;
15557;SDS011;7880;50.110;9.372;2023-06-19T11:48:40;9.876923076923076;;;4.96923076923077;;
15557;SDS011;7880;50.110;9.372;2023-06-19T11:53:45;5.192307692307693;;;3.8307692307692305;;
15557;SDS011;7880;50.110;9.372;2023-06-19T11:58:50;5.369230769230768;;;4.869230769230769;;
15557;SDS011;7880;50.110;9.372;2023-06-19T12:03:54;4.6692307692307695;;;4.200000000000001;;
15557;SDS011;7880;50.110;9.372;2023-06-19T12:08:59;5.061538461538462;;;4.269230769230769;;
15557;SDS011;7880;50.110;9.372;2023-06-19T12:14:03;4.8999999999999995;;;4.5;;
15557;SDS011;7880;50.110;9.372;2023-06-19T12:19:08;4.769230769230769;;;4.16923076923077;;
15557;SDS011;7880;50.110;9.372;2023-06-19T12:24:13;4.6000000000000005;;;4.200000000000001;;
15557;SDS011;7880;50.110;9.372;2023-06-19T12:29:17;4.392307692307693;;;3.9615384615384617;;
15557;SDS011;7880;50.110;9.372;2023-06-19T12:34:27;5.1000000000000005;;;4.6000000000000005;;
15557;SDS011;7880;50.110;9.372;2023-06-19T12:39:26;11.10769230769231;;;4.33076923076923;;
15557;SDS011;7880;50.110;9.372;2023-06-19T12:44:30;4.723076923076923;;;4.392307692307693;;
15557;SDS011;7880;50.110;9.372;2023-06-19T12:49:35;7.669230769230769;;;4.061538461538462;;
15557;SDS011;7880;50.110;9.372;2023-06-19T12:54:42;7.507692307692308;;;4.299999999999999;;
15557;SDS011;7880;50.110;9.372;2023-06-19T12:59:43;4.299999999999999;;;4.0;;
15557;SDS011;7880;50.110;9.372;2023-06-19T13:05:37;4.3999999999999995;;;4.0;;
15557;SDS011;7880;50.110;9.372;2023-06-19T13:10:41;5.6692307692307695;;;4.0307692307692315;;
15557;SDS011;7880;50.110;9.372;2023-06-19T13:15:48;6.13846153846154;;;4.269230769230769;;
15557;SDS011;7880;50.110;9.372;2023-06-19T13:20:49;6.13846153846154;;;4.0;;
15557;SDS011;7880;50.110;9.372;2023-06-19T13:25:56;4.799999999999999;;;4.3999999999999995;;
15557;SDS011;7880;50.110;9.372;2023-06-19T13:29:23;4.86923076923077;;;4.200000000000001;;
15557;SDS011;7880;50.110;9.372;2023-06-19T13:34:31;4.3999999999999995;;;4.0;;
15557;SDS011;7880;50.110;9.372;2023-06-19T13:39:33;6.438461538461538;;;4.96923076923077;;
15557;SDS011;7880;50.110;9.372;2023-06-19T13:44:41;4.492307692307692;;;3.7307692307692295;;
15557;SDS011;7880;50.110;9.372;2023-06-19T13:49:45;7.238461538461536;;;3.899999999999999;;
15557;SDS011;7880;50.110;9.372;2023-06-19T13:54:48;4.638461538461538;;;3.869230769230768;;
15557;SDS011;7880;50.110;9.372;2023-06-19T13:59:51;5.938461538461538;;;4.0;;
15557;SDS011;7880;50.110;9.372;2023-06-19T14:04:54;6.423076923076923;;;4.253846153846156;;
15557;SDS011;7880;50.110;9.372;2023-06-19T14:09:59;4.6692307692307695;;;3.869230769230768;;
15557;SDS011;7880;50.110;9.372;2023-06-19T14:15:05;4.299999999999999;;;3.899999999999999;;
15557;SDS011;7880;50.110;9.372;2023-06-19T14:20:10;4.161538461538461;;;3.8615384615384616;;
15557;SDS011;7880;50.110;9.372;2023-06-19T14:25:13;4.3999999999999995;;;4.0;;
15557;SDS011;7880;50.110;9.372;2023-06-19T14:30:18;6.1;;;4.5;;
15557;SDS011;7880;50.110;9.372;2023-06-19T14:35:24;7.06923076923077;;;3.93076923076923;;
15557;SDS011;7880;50.110;9.372;2023-06-19T14:40:28;7.576923076923077;;;4.16923076923077;;
15557;SDS011;7880;50.110;9.372;2023-06-19T14:45:33;4.799999999999999;;;4.299999999999999;;
15557;SDS011;7880;50.110;9.372;2023-06-19T14:50:40;6.269230769230769;;;4.299999999999999;;
15557;SDS011;7880;50.110;9.372;2023-06-19T14:55:47;5.269230769230769;;;4.269230769230769;;
15557;SDS011;7880;50.110;9.372;2023-06-19T15:00:50;6.3461538461538485;;;3.8615384615384616;;
15557;SDS011;7880;50.110;9.372;2023-06-19T15:05:59;4.799999999999999;;;4.299999999999999;;
15557;SDS011;7880;50.110;9.372;2023-06-19T15:10:59;4.0;;;3.7000000000000006;;
15557;SDS011;7880;50.110;9.372;2023-06-19T15:16:07;4.323076923076924;;;3.5;;
15557;SDS011;7880;50.110;9.372;2023-06-19T15:21:08;4.33076923076923;;;4.0307692307692315;;
15557;SDS011;7880;50.110;9.372;2023-06-19T15:26:12;5.0;;;3.8307692307692305;;
15557;SDS011;7880;50.110;9.372;2023-06-19T15:31:17;4.6;;;3.8307692307692305;;
15557;SDS011;7880;50.110;9.372;2023-06-19T15:36:21;5.269230769230769;;;4.269230769230769;;
15557;SDS011;7880;50.110;9.372;2023-06-19T15:41:26;6.799999999999998;;;4.0307692307692315;;
15557;SDS011;7880;50.110;9.372;2023-06-19T15:46:31;4.299999999999999;;;3.899999999999999;;
15557;SDS011;7880;50.110;9.372;2023-06-19T15:51:36;5.5307692307692315;;;4.299999999999999;;
15557;SDS011;7880;50.110;9.372;2023-06-19T15:56:39;4.469230769230769;;;3.869230769230768;;
15557;SDS011;7880;50.110;9.372;2023-06-19T16:01:43;4.0;;;3.600000000000001;;
15557;SDS011;7880;50.110;9.372;2023-06-19T16:06:48;6.369230769230768;;;4.430769230769231;;
15557;SDS011;7880;50.110;9.372;2023-06-19T16:11:52;5.6692307692307695;;;4.200000000000001;;
15557;SDS011;7880;50.110;9.372;2023-06-19T16:16:58;5.938461538461538;;;4.369230769230769;;
15557;SDS011;7880;50.110;9.372;2023-06-19T16:22:01;4.0307692307692315;;;3.7000000000000006;;
15557;SDS011;7880;50.110;9.372;2023-06-19T16:27:06;7.238461538461536;;;4.799999999999999;;
15557;SDS011;7880;50.110;9.372;2023-06-19T16:32:21;6.238461538461536;;;4.299999999999999;;
15557;SDS011;7880;50.110;9.372;2023-06-19T16:37:18;4.8999999999999995;;;4.3999999999999995;;
15557;SDS011;7880;50.110;9.372;2023-06-19T16:42:22;5.738461538461537;;;4.3999999999999995;;
15557;SDS011;7880;50.110;9.372;2023-06-19T16:47:25;4.6000000000000005;;;4.200000000000001;;
15557;SDS011;7880;50.110;9.372;2023-06-19T16:52:29;4.6000000000000005;;;4.200000000000001;;
15557;SDS011;7880;50.110;9.372;2023-06-19T16:57:44;4.6000000000000005;;;4.200000000000001;;
15557;SDS011;7880;50.110;9.372;2023-06-19T17:02:41;6.86153846153846;;;4.561538461538462;;
15557;SDS011;7880;50.110;9.372;2023-06-19T17:07:45;5.5;;;5.0;;
15557;SDS011;7880;50.110;9.372;2023-06-19T17:12:50;6.4;;;4.730769230769231;;
15557;SDS011;7880;50.110;9.372;2023-06-19T17:17:54;4.93076923076923;;;4.530769230769231;;
15557;SDS011;7880;50.110;9.372;2023-06-19T17:22:58;6.223076923076923;;;4.16923076923077;;
15557;SDS011;7880;50.110;9.372;2023-06-19T17:28:02;4.661538461538462;;;4.33076923076923;;
15557;SDS011;7880;50.110;9.372;2023-06-19T17:33:08;4.700000000000001;;;4.299999999999999;;
15557;SDS011;7880;50.110;9.372;2023-06-19T17:38:10;4.830769230769231;;;4.33076923076923;;
15557;SDS011;7880;50.110;9.372;2023-06-19T17:43:15;5.4;;;4.33076923076923;;
15557;SDS011;7880;50.110;9.372;2023-06-19T17:48:21;5.1000000000000005;;;4.299999999999999;;
15557;SDS011;7880;50.110;9.372;2023-06-19T17:53:27;4.938461538461538;;;4.369230769230769;;
15557;SDS011;7880;50.110;9.372;2023-06-19T17:58:34;5.769230769230769;;;4.630769230769232;;
15557;SDS011;7880;50.110;9.372;2023-06-19T18:03:37;6.63846153846154;;;4.430769230769231;;
15557;SDS011;7880;50.110;9.372;2023-06-19T18:08:41;8.238461538461536;;;4.530769230769231;;
15557;SDS011;7880;50.110;9.372;2023-06-19T18:13:46;4.630769230769232;;;4.23076923076923;;
15557;SDS011;7880;50.110;9.372;2023-06-19T18:18:50;5.369230769230768;;;4.869230769230769;;
15557;SDS011;7880;50.110;9.372;2023-06-19T18:23:59;5.3307692307692305;;;4.830769230769231;;
15557;SDS011;7880;50.110;9.372;2023-06-19T18:28:57;6.299999999999998;;;4.33076923076923;;
15557;SDS011;7880;50.110;9.372;2023-06-19T18:33:36;5.753846153846153;;;5.200000000000001;;
15557;SDS011;7880;50.110;9.372;2023-06-19T18:38:42;5.1000000000000005;;;4.6000000000000005;;
15557;SDS011;7880;50.110;9.372;2023-06-19T18:43:46;4.700000000000001;;;4.299999999999999;;
15557;SDS011;7880;50.110;9.372;2023-06-19T18:48:51;5.369230769230768;;;4.6000000000000005;;
15557;SDS011;7880;50.110;9.372;2023-06-19T18:53:56;4.561538461538462;;;4.161538461538461;;
15557;SDS011;7880;50.110;9.372;2023-06-19T18:59:05;5.3307692307692305;;;4.830769230769231;;
15557;SDS011;7880;50.110;9.372;2023-06-19T19:04:08;5.230769230769231;;;4.730769230769231;;
15557;SDS011;7880;50.110;9.372;2023-06-19T19:09:15;4.6000000000000005;;;4.200000000000001;;
15557;SDS011;7880;50.110;9.372;2023-06-19T19:14:19;5.269230769230769;;;4.769230769230769;;
15557;SDS011;7880;50.110;9.372;2023-06-19T19:19:23;4.5;;;4.1000000000000005;;
15557;SDS011;7880;50.110;9.372;2023-06-19T19:24:30;5.4;;;4.8999999999999995;;
15557;SDS011;7880;50.110;9.372;2023-06-19T19:29:34;5.06923076923077;;;4.6692307692307695;;
15557;SDS011;7880;50.110;9.372;2023-06-19T19:34:39;5.43076923076923;;;4.830769230769231;;
15557;SDS011;7880;50.110;9.372;2023-06-19T19:39:42;5.092307692307691;;;4.576923076923078;;
15557;SDS011;7880;50.110;9.372;2023-06-19T19:44:47;6.799999999999998;;;4.799999999999999;;
15557;SDS011;7880;50.110;9.372;2023-06-19T19:49:52;5.1000000000000005;;;4.6000000000000005;;
15557;SDS011;7880;50.110;9.372;2023-06-19T19:54:56;6.0307692307692315;;;4.630769230769232;;
15557;SDS011;7880;50.110;9.372;2023-06-19T20:00:06;5.299999999999999;;;4.6000000000000005;;
15557;SDS011;7880;50.110;9.372;2023-06-19T20:05:12;5.938461538461538;;;5.200000000000001;;
15557;SDS011;7880;50.110;9.372;2023-06-19T20:10:31;6.700000000000002;;;4.707692307692307;;
15557;SDS011;7880;50.110;9.372;2023-06-19T20:15:48;7.238461538461536;;;4.8999999999999995;;
15557;SDS011;7880;50.110;9.372;2023-06-19T20:20:35;4.6692307692307695;;;3.899999999999999;;
15557;SDS011;7880;50.110;9.372;2023-06-19T20:25:40;8.238461538461536;;;4.730769230769231;;
15557;SDS011;7880;50.110;9.372;2023-06-19T20:30:44;5.261538461538462;;;4.861538461538462;;
15557;SDS011;7880;50.110;9.372;2023-06-19T20:36:01;6.584615384615383;;;5.1000000000000005;;
15557;SDS011;7880;50.110;9.372;2023-06-19T20:40:54;5.03076923076923;;;4.530769230769231;;
15557;SDS011;7880;50.110;9.372;2023-06-19T20:46:00;5.769230769230769;;;5.269230769230769;;
15557;SDS011;7880;50.110;9.372;2023-06-19T20:51:03;5.4;;;4.8999999999999995;;
15557;SDS011;7880;50.110;9.372;2023-06-19T20:56:06;6.461538461538459;;;4.799999999999999;;
15557;SDS011;7880;50.110;9.372;2023-06-19T21:01:11;6.769230769230769;;;5.1000000000000005;;
15557;SDS011;7880;50.110;9.372;2023-06-19T21:06:19;5.284615384615386;;;4.700000000000001;;
15557;SDS011;7880;50.110;9.372;2023-06-19T21:11:25;6.738461538461536;;;4.8999999999999995;;
15557;SDS011;7880;50.110;9.372;2023-06-19T21:16:30;5.5;;;5.0;;
15557;SDS011;7880;50.110;9.372;2023-06-19T21:21:36;6.799999999999998;;;4.861538461538462;;
15557;SDS011;7880;50.110;9.372;2023-06-19T21:26:34;5.630769230769232;;;5.130769230769232;;
15557;SDS011;7880;50.110;9.372;2023-06-19T21:31:39;4.8999999999999995;;;4.5;;
15557;SDS011;7880;50.110;9.372;2023-06-19T21:36:41;12.199999999999998;;;4.361538461538462;;
15557;SDS011;7880;50.110;9.372;2023-06-19T21:41:46;6.807692307692306;;;5.06923076923077;;
15557;SDS011;7880;50.110;9.372;2023-06-19T21:46:53;9.607692307692309;;;4.96923076923077;;
15557;SDS011;7880;50.110;9.372;2023-06-19T21:51:55;7.130769230769232;;;5.43076923076923;;
15557;SDS011;7880;50.110;9.372;2023-06-19T21:57:02;6.246153846153845;;;5.43076923076923;;
15557;SDS011;7880;50.110;9.372;2023-06-19T22:02:14;7.230769230769231;;;5.0;;
15557;SDS011;7880;50.110;9.372;2023-06-19T22:07:08;5.4;;;4.8999999999999995;;
15557;SDS011;7880;50.110;9.372;2023-06-19T22:12:12;5.46923076923077;;;4.96923076923077;;
15557;SDS011;7880;50.110;9.372;2023-06-19T22:17:22;8.307692307692307;;;4.799999999999999;;
15557;SDS011;7880;50.110;9.372;2023-06-19T22:22:27;6.438461538461538;;;5.0;;
15557;SDS011;7880;50.110;9.372;2023-06-19T22:27:26;8.438461538461537;;;5.769230769230769;;
15557;SDS011;7880;50.110;9.372;2023-06-19T22:32:33;5.6;;;4.9692307692307685;;
15557;SDS011;7880;50.110;9.372;2023-06-19T22:37:46;7.13846153846154;;;5.0;;
15557;SDS011;7880;50.110;9.372;2023-06-19T22:42:43;6.63846153846154;;;5.369230769230768;;
15557;SDS011;7880;50.110;9.372;2023-06-19T22:47:49;5.9;;;5.200000000000001;;
15557;SDS011;7880;50.110;9.372;2023-06-19T22:52:50;6.230769230769231;;;5.630769230769232;;
15557;SDS011;7880;50.110;9.372;2023-06-19T22:57:55;8.03846153846154;;;4.799999999999999;;